createdAt,value
2018-08-31T00:00:41.743Z,12.67
2018-08-31T00:03:10.780Z,11.67
2018-08-31T00:05:51.063Z,11.80
2018-08-31T00:09:29.428Z,12.00
2018-08-31T00:12:12.413Z,12.70
2018-08-31T00:14:40.346Z,12.87
2018-08-31T00:17:08.200Z,12.37
2018-08-31T00:19:36.168Z,12.60
2018-08-31T00:22:03.923Z,13.10
2018-08-31T00:24:43.029Z,12.10
2018-08-31T00:27:22.009Z,12.90
2018-08-31T00:30:01.064Z,12.00
2018-08-31T00:32:40.727Z,12.23
2018-08-31T00:36:19.774Z,12.40
2018-08-31T00:42:05.007Z,13.70
2018-08-31T00:45:24.512Z,13.10
2018-08-31T00:47:52.103Z,12.80
2018-08-31T00:50:19.767Z,11.73
2018-08-31T00:52:47.496Z,12.80
2018-08-31T00:55:15.028Z,13.60
2018-08-31T00:57:42.864Z,11.90
2018-08-31T01:00:10.460Z,12.53
2018-08-31T01:02:38.157Z,13.20
2018-08-31T01:05:05.913Z,11.60
2018-08-31T01:07:33.627Z,12.07
2018-08-31T01:10:01.191Z,12.83
2018-08-31T01:12:28.972Z,12.93
2018-08-31T01:14:56.588Z,12.70
2018-08-31T01:17:24.307Z,13.13
2018-08-31T01:19:51.871Z,13.60
2018-08-31T01:22:19.730Z,12.67
2018-08-31T01:24:48.167Z,12.90
2018-08-31T01:27:15.971Z,13.30
2018-08-31T01:29:43.896Z,12.93
2018-08-31T01:32:11.593Z,13.03
2018-08-31T01:34:39.908Z,12.30
2018-08-31T01:37:07.755Z,12.60
2018-08-31T01:39:35.469Z,12.03
2018-08-31T01:42:03.192Z,12.60
2018-08-31T01:44:30.916Z,12.60
2018-08-31T01:46:58.737Z,12.23
2018-08-31T01:49:26.327Z,13.03
2018-08-31T01:51:54.267Z,13.33
2018-08-31T01:54:21.940Z,12.10
2018-08-31T01:56:50.325Z,13.40
2018-08-31T01:59:17.916Z,12.40
2018-08-31T02:01:45.828Z,11.97
2018-08-31T02:04:14.134Z,13.10
2018-08-31T02:06:41.870Z,12.63
2018-08-31T02:09:15.287Z,14.00
2018-08-31T02:11:43.108Z,13.43
2018-08-31T02:14:10.805Z,12.93
2018-08-31T02:16:38.419Z,13.13
2018-08-31T02:19:06.194Z,12.20
2018-08-31T02:21:33.931Z,12.77
2018-08-31T02:24:02.383Z,13.07
2018-08-31T02:26:30.065Z,12.93
2018-08-31T02:28:57.739Z,12.70
2018-08-31T02:31:25.566Z,12.20
2018-08-31T02:33:53.781Z,12.30
2018-08-31T02:36:21.662Z,12.60
2018-08-31T02:38:49.410Z,12.80
2018-08-31T02:41:17.719Z,11.90
2018-08-31T02:43:46.700Z,12.13
2018-08-31T02:46:14.476Z,13.70
2018-08-31T02:48:42.214Z,12.57
2018-08-31T02:51:10.588Z,12.87
2018-08-31T02:53:38.959Z,12.70
2018-08-31T02:56:06.575Z,13.87
2018-08-31T02:58:34.345Z,13.70
2018-08-31T03:01:02.608Z,12.10
2018-08-31T03:03:30.941Z,14.07
2018-08-31T03:05:58.520Z,14.30
2018-08-31T03:08:26.303Z,13.30
2018-08-31T03:10:54.109Z,12.37
2018-08-31T03:13:21.828Z,13.60
2018-08-31T03:15:50.064Z,12.90
2018-08-31T03:18:17.824Z,13.40
2018-08-31T03:20:45.432Z,13.10
2018-08-31T03:23:13.136Z,15.07
2018-08-31T03:25:40.804Z,13.13
2018-08-31T03:28:08.799Z,14.33
2018-08-31T03:30:36.631Z,14.33
2018-08-31T03:33:04.523Z,13.60
2018-08-31T03:35:32.140Z,13.23
2018-08-31T03:37:59.699Z,13.70
2018-08-31T03:40:27.391Z,12.83
2018-08-31T03:42:55.055Z,16.30
2018-08-31T03:45:22.744Z,12.67
2018-08-31T03:47:50.409Z,13.77
2018-08-31T03:50:18.174Z,13.50
2018-08-31T03:52:45.844Z,14.07
2018-08-31T03:55:13.575Z,13.97
2018-08-31T03:57:41.358Z,15.30
2018-08-31T04:00:09.924Z,15.83
2018-08-31T04:02:37.625Z,13.50
2018-08-31T04:05:06.447Z,13.50
2018-08-31T04:07:34.194Z,14.53
2018-08-31T04:10:01.936Z,13.10
2018-08-31T04:12:30.282Z,13.50
2018-08-31T04:14:57.952Z,13.40
2018-08-31T04:17:25.792Z,14.80
2018-08-31T04:19:53.672Z,13.40
2018-08-31T04:22:21.463Z,15.27
2018-08-31T04:24:49.249Z,15.20
2018-08-31T04:27:16.848Z,14.43
2018-08-31T04:29:44.396Z,14.50
2018-08-31T04:32:12.325Z,14.70
2018-08-31T04:34:40.048Z,15.53
2018-08-31T04:37:08.590Z,13.70
2018-08-31T04:39:36.287Z,14.53
2018-08-31T04:42:04.056Z,13.60
2018-08-31T04:44:32.444Z,14.87
2018-08-31T04:47:00.219Z,13.87
2018-08-31T04:49:28.503Z,14.37
2018-08-31T04:51:56.068Z,16.43
2018-08-31T04:54:23.993Z,14.30
2018-08-31T04:56:51.816Z,13.37
2018-08-31T04:59:20.084Z,16.10
2018-08-31T05:01:47.780Z,14.20
2018-08-31T05:04:15.671Z,13.80
2018-08-31T05:06:43.539Z,15.20
2018-08-31T05:09:11.815Z,14.03
2018-08-31T05:11:39.710Z,14.60
2018-08-31T05:14:07.317Z,13.87
2018-08-31T05:16:35.005Z,13.40
2018-08-31T05:19:02.704Z,14.10
2018-08-31T05:21:30.427Z,14.60
2018-08-31T05:23:58.175Z,14.07
2018-08-31T05:26:26.098Z,14.20
2018-08-31T05:28:54.347Z,15.27
2018-08-31T05:31:22.145Z,14.47
2018-08-31T05:33:50.447Z,15.03
2018-08-31T05:36:18.209Z,14.87
2018-08-31T05:38:45.910Z,15.60
2018-08-31T05:41:13.768Z,14.83
2018-08-31T05:43:42.119Z,14.10
2018-08-31T05:46:09.792Z,13.83
2018-08-31T05:48:37.315Z,15.90
2018-08-31T05:51:04.924Z,15.63
2018-08-31T05:53:32.819Z,15.13
2018-08-31T05:56:00.452Z,15.57
2018-08-31T05:58:28.294Z,15.40
2018-08-31T06:00:55.956Z,15.90
2018-08-31T06:03:23.619Z,18.10
2018-08-31T06:05:51.312Z,16.80
2018-08-31T06:08:19.051Z,18.73
2018-08-31T06:10:46.895Z,16.57
2018-08-31T06:13:14.661Z,16.57
2018-08-31T06:15:42.403Z,17.37
2018-08-31T06:18:10.087Z,18.27
2018-08-31T06:20:38.015Z,18.20
2018-08-31T06:23:05.835Z,19.10
2018-08-31T06:25:33.519Z,16.80
2018-08-31T06:28:01.157Z,18.37
2018-08-31T06:30:28.795Z,18.53
2018-08-31T06:32:56.437Z,18.90
2018-08-31T06:35:24.135Z,19.90
2018-08-31T06:37:51.696Z,18.27
2018-08-31T06:40:19.365Z,19.30
2018-08-31T06:42:47.252Z,18.50
2018-08-31T06:45:14.999Z,18.80
2018-08-31T06:47:42.763Z,18.17
2018-08-31T06:50:10.436Z,19.33
2018-08-31T06:52:38.208Z,17.80
2018-08-31T06:55:05.929Z,19.03
2018-08-31T06:57:33.580Z,17.30
2018-08-31T07:00:01.532Z,18.40
2018-08-31T07:02:29.176Z,18.57
2018-08-31T07:04:56.895Z,18.13
2018-08-31T07:07:24.488Z,19.70
2018-08-31T07:09:52.277Z,18.67
2018-08-31T07:12:20.198Z,20.10
2018-08-31T07:14:47.820Z,19.27
2018-08-31T07:17:15.403Z,19.83
2018-08-31T07:19:43.151Z,19.33
2018-08-31T07:22:10.852Z,20.07
2018-08-31T07:24:38.701Z,19.40
2018-08-31T07:27:06.461Z,18.70
2018-08-31T07:29:34.036Z,19.57
2018-08-31T07:32:01.660Z,19.40
2018-08-31T07:34:29.356Z,20.27
2018-08-31T07:36:57.061Z,18.67
2018-08-31T07:39:25.262Z,18.00
2018-08-31T07:41:52.975Z,18.90
2018-08-31T07:44:20.762Z,19.30
2018-08-31T07:46:48.708Z,18.80
2018-08-31T07:49:16.624Z,18.80
2018-08-31T07:51:44.956Z,18.93
2018-08-31T07:54:13.236Z,18.87
2018-08-31T07:56:41.003Z,18.50
2018-08-31T07:59:09.404Z,19.10
2018-08-31T08:01:37.020Z,19.60
2018-08-31T08:04:04.726Z,20.50
2018-08-31T08:06:32.324Z,17.80
2018-08-31T08:08:59.946Z,18.70
2018-08-31T08:11:27.940Z,19.20
2018-08-31T08:13:55.676Z,19.70
2018-08-31T08:16:23.370Z,17.10
2018-08-31T08:18:51.093Z,17.33
2018-08-31T08:21:19.439Z,19.43
2018-08-31T08:23:47.178Z,18.03
2018-08-31T08:26:14.880Z,17.50
2018-08-31T08:28:42.637Z,19.17
2018-08-31T08:31:10.332Z,17.30
2018-08-31T08:33:38.619Z,17.57
2018-08-31T08:36:06.764Z,17.87
2018-08-31T08:38:34.357Z,17.43
2018-08-31T08:41:01.980Z,19.40
2018-08-31T08:43:29.755Z,18.03
2018-08-31T08:45:57.550Z,19.40
2018-08-31T08:48:25.797Z,18.87
2018-08-31T08:50:53.492Z,17.70
2018-08-31T08:53:21.267Z,17.30
2018-08-31T08:55:49.480Z,18.67
2018-08-31T08:58:17.143Z,18.00
2018-08-31T09:00:44.687Z,19.00
2018-08-31T09:03:12.503Z,17.90
2018-08-31T09:05:41.187Z,17.53
2018-08-31T09:08:08.736Z,18.40
2018-08-31T09:10:36.268Z,17.20
2018-08-31T09:13:03.971Z,17.50
2018-08-31T09:15:31.663Z,18.53
2018-08-31T09:17:59.288Z,17.93
2018-08-31T09:20:26.833Z,16.83
2018-08-31T09:22:54.438Z,17.60
2018-08-31T09:25:22.136Z,18.53
2018-08-31T09:27:49.823Z,18.60
2018-08-31T09:30:23.143Z,17.70
2018-08-31T09:32:51.428Z,17.17
2018-08-31T09:35:19.113Z,17.63
2018-08-31T09:37:46.740Z,18.33
2018-08-31T09:40:14.320Z,18.67
2018-08-31T09:42:42.072Z,19.20
2018-08-31T09:45:10.374Z,17.73
2018-08-31T09:47:38.069Z,16.73
2018-08-31T09:50:05.922Z,18.67
2018-08-31T09:52:33.456Z,16.73
2018-08-31T09:55:01.595Z,18.80
2018-08-31T09:57:29.799Z,16.70
2018-08-31T09:59:57.300Z,17.60
2018-08-31T10:02:30.460Z,15.97
2018-08-31T10:04:58.380Z,16.70
2018-08-31T10:07:26.096Z,16.50
2018-08-31T10:09:53.868Z,18.70
2018-08-31T10:12:21.442Z,18.20
2018-08-31T10:14:49.121Z,17.67
2018-08-31T10:17:16.761Z,18.50
2018-08-31T10:19:44.671Z,19.10
2018-08-31T10:22:12.296Z,16.47
2018-08-31T10:24:39.823Z,17.90
2018-08-31T10:27:08.935Z,18.53
2018-08-31T10:29:36.696Z,17.80
2018-08-31T10:32:04.823Z,18.17
2018-08-31T10:34:32.384Z,19.17
2018-08-31T10:37:00.011Z,18.90
2018-08-31T10:39:27.792Z,17.90
2018-08-31T10:41:55.456Z,18.20
2018-08-31T10:44:23.095Z,18.60
2018-08-31T10:46:50.801Z,18.30
2018-08-31T10:49:19.252Z,17.90
2018-08-31T10:51:46.918Z,18.23
2018-08-31T10:54:14.755Z,20.23
2018-08-31T10:56:42.435Z,17.77
2018-08-31T10:59:10.022Z,18.77
2018-08-31T11:01:37.692Z,17.80
2018-08-31T11:04:05.747Z,18.67
2018-08-31T11:06:33.340Z,19.83
2018-08-31T11:09:01.117Z,19.07
2018-08-31T11:11:29.567Z,19.97
2018-08-31T11:13:58.786Z,18.77
2018-08-31T11:16:26.536Z,18.97
2018-08-31T11:18:54.301Z,19.73
2018-08-31T11:21:21.900Z,21.47
2018-08-31T11:23:49.592Z,19.60
2018-08-31T11:26:17.225Z,18.63
2018-08-31T11:28:45.260Z,20.00
2018-08-31T11:31:12.893Z,20.73
2018-08-31T11:33:40.757Z,20.10
2018-08-31T11:36:08.560Z,21.30
2018-08-31T11:38:36.191Z,21.63
2018-08-31T11:41:05.313Z,19.43
2018-08-31T11:43:33.182Z,20.57
2018-08-31T11:46:01.048Z,21.57
2018-08-31T11:48:28.795Z,18.93
2018-08-31T11:50:56.671Z,21.50
2018-08-31T11:53:24.456Z,21.67
2018-08-31T11:55:52.190Z,20.43
2018-08-31T11:58:19.941Z,21.53
2018-08-31T12:00:47.730Z,21.97
2018-08-31T12:03:15.572Z,22.13
2018-08-31T12:05:43.912Z,20.60
2018-08-31T12:08:11.557Z,21.40
2018-08-31T12:10:39.436Z,21.70
2018-08-31T12:13:07.203Z,22.63
2018-08-31T12:15:35.101Z,20.43
2018-08-31T12:18:02.981Z,21.10
2018-08-31T12:20:30.802Z,20.40
2018-08-31T12:22:58.575Z,22.33
2018-08-31T12:25:26.196Z,20.70
2018-08-31T12:27:54.561Z,21.33
2018-08-31T12:30:22.263Z,20.80
2018-08-31T12:32:49.824Z,21.17
2018-08-31T12:35:17.659Z,20.43
2018-08-31T12:37:45.275Z,21.80
2018-08-31T12:40:12.928Z,21.40
2018-08-31T12:42:40.740Z,20.50
2018-08-31T12:45:08.308Z,20.13
2018-08-31T12:47:36.111Z,20.27
2018-08-31T12:50:03.956Z,21.20
2018-08-31T12:52:31.504Z,22.00
2018-08-31T12:54:59.693Z,21.70
2018-08-31T12:57:27.943Z,24.17
2018-08-31T12:59:59.894Z,22.90
2018-08-31T13:02:28.871Z,24.07
2018-08-31T13:04:56.474Z,23.80
2018-08-31T13:07:24.280Z,23.67
2018-08-31T13:09:52.045Z,24.60
2018-08-31T13:12:19.817Z,23.80
2018-08-31T13:14:47.603Z,25.00
2018-08-31T13:17:15.256Z,24.97
2018-08-31T13:19:42.931Z,29.77
2018-08-31T13:22:10.783Z,24.23
2018-08-31T13:24:38.421Z,23.17
2018-08-31T13:27:06.283Z,20.90
2018-08-31T13:29:34.233Z,23.60
2018-08-31T13:32:01.832Z,21.40
2018-08-31T13:34:29.476Z,22.63
2018-08-31T13:36:57.603Z,23.43
2018-08-31T13:39:25.751Z,22.50
2018-08-31T13:41:53.428Z,22.50
2018-08-31T13:44:21.150Z,23.37
2018-08-31T13:46:48.876Z,22.20
2018-08-31T13:49:17.403Z,21.53
2018-08-31T13:51:45.175Z,21.00
2018-08-31T13:54:12.853Z,22.27
2018-08-31T13:56:40.563Z,22.43
2018-08-31T13:59:08.325Z,22.60
2018-08-31T14:01:36.819Z,21.70
2018-08-31T14:04:05.028Z,20.13
2018-08-31T14:06:32.591Z,22.80
2018-08-31T14:09:00.718Z,21.90
2018-08-31T14:11:28.670Z,21.77
2018-08-31T14:13:56.428Z,22.30
2018-08-31T14:16:24.164Z,22.83
2018-08-31T14:18:51.951Z,22.30
2018-08-31T14:21:19.480Z,21.70
2018-08-31T14:23:47.179Z,20.40
2018-08-31T14:26:14.763Z,22.63
2018-08-31T14:28:42.645Z,22.50
2018-08-31T14:31:10.553Z,21.20
2018-08-31T14:33:38.317Z,22.03
2018-08-31T14:36:06.344Z,21.93
2018-08-31T14:38:34.021Z,21.50
2018-08-31T14:41:01.600Z,21.07
2018-08-31T14:43:29.338Z,21.43
2018-08-31T14:45:57.866Z,20.23
2018-08-31T14:48:25.886Z,20.67
2018-08-31T14:50:53.610Z,20.67
2018-08-31T14:53:21.441Z,20.20
2018-08-31T14:55:49.739Z,22.40
2018-08-31T14:58:17.584Z,21.63
2018-08-31T15:00:45.934Z,21.20
2018-08-31T15:03:13.590Z,21.00
2018-08-31T15:05:42.108Z,22.23
2018-08-31T15:08:10.344Z,21.10
2018-08-31T15:10:37.911Z,20.97
2018-08-31T15:13:05.622Z,20.00
2018-08-31T15:15:33.275Z,20.47
2018-08-31T15:18:01.083Z,21.20
2018-08-31T15:20:28.857Z,19.40
2018-08-31T15:22:56.568Z,23.00
2018-08-31T15:25:24.288Z,21.30
2018-08-31T15:27:51.816Z,20.73
2018-08-31T15:30:19.442Z,20.40
2018-08-31T15:32:47.944Z,21.50
2018-08-31T15:35:16.456Z,22.80
2018-08-31T15:37:44.812Z,21.47
2018-08-31T15:40:12.575Z,22.10
2018-08-31T15:42:40.198Z,22.63
2018-08-31T15:45:07.886Z,22.07
2018-08-31T15:47:35.684Z,23.07
2018-08-31T15:50:03.396Z,23.27
2018-08-31T15:52:31.106Z,22.90
2018-08-31T15:54:58.952Z,21.87
2018-08-31T15:57:26.704Z,22.77
2018-08-31T15:59:54.540Z,22.50
2018-08-31T16:02:22.399Z,20.73
2018-08-31T16:04:50.295Z,20.27
2018-08-31T16:07:18.227Z,19.30
2018-08-31T16:09:45.979Z,18.33
2018-08-31T16:12:13.726Z,19.63
2018-08-31T16:14:41.724Z,18.10
2018-08-31T16:17:09.419Z,19.97
2018-08-31T16:19:37.175Z,19.37
2018-08-31T16:22:04.860Z,21.17
2018-08-31T16:24:32.729Z,21.43
2018-08-31T16:27:00.982Z,21.40
2018-08-31T16:29:28.795Z,19.43
2018-08-31T16:31:57.416Z,14.20
2018-08-31T16:34:25.263Z,12.40
2018-08-31T16:36:52.888Z,12.97
2018-08-31T16:39:21.137Z,13.10
2018-08-31T16:41:48.767Z,13.03
2018-08-31T16:44:16.652Z,13.37
2018-08-31T16:46:45.038Z,14.20
2018-08-31T16:49:12.676Z,13.67
2018-08-31T16:51:40.343Z,15.20
2018-08-31T16:54:08.052Z,14.57
2018-08-31T16:56:35.943Z,15.30
2018-08-31T16:59:03.601Z,16.30
2018-08-31T17:01:31.308Z,14.20
2018-08-31T17:03:59.704Z,15.20
2018-08-31T17:06:27.322Z,14.80
2018-08-31T17:08:54.995Z,13.57
2018-08-31T17:11:22.613Z,13.77
2018-08-31T17:13:50.296Z,14.70
2018-08-31T17:16:18.046Z,15.30
2018-08-31T17:18:45.787Z,16.57
2018-08-31T17:21:14.083Z,15.23
2018-08-31T17:23:41.936Z,14.57
2018-08-31T17:26:15.253Z,14.37
2018-08-31T17:28:49.451Z,16.40
2018-08-31T17:31:22.678Z,18.60
2018-08-31T17:33:56.334Z,16.60
2018-08-31T17:37:27.720Z,15.23
2018-08-31T17:39:56.095Z,15.77
2018-08-31T17:42:24.486Z,16.10
2018-08-31T17:44:52.736Z,15.40
2018-08-31T17:47:20.508Z,15.90
2018-08-31T17:49:49.010Z,17.20
2018-08-31T17:52:16.632Z,17.30
2018-08-31T17:54:44.784Z,16.47
2018-08-31T17:57:12.459Z,16.30
2018-08-31T17:59:40.125Z,17.67
2018-08-31T18:02:08.460Z,15.60
2018-08-31T18:04:36.192Z,15.47
2018-08-31T18:07:04.539Z,17.30
2018-08-31T18:09:32.336Z,17.37
2018-08-31T18:12:00.045Z,17.27
2018-08-31T18:14:27.654Z,17.80
2018-08-31T18:16:56.036Z,18.40
2018-08-31T18:19:23.831Z,19.23
2018-08-31T18:21:51.850Z,19.00
2018-08-31T18:24:19.660Z,20.43
2018-08-31T18:26:47.223Z,21.17
2018-08-31T18:29:14.944Z,20.60
2018-08-31T18:31:43.266Z,22.83
2018-08-31T18:34:11.066Z,22.77
2018-08-31T18:36:38.808Z,19.90
2018-08-31T18:39:07.309Z,19.10
2018-08-31T18:41:35.127Z,18.67
2018-08-31T18:44:04.028Z,21.70
2018-08-31T18:46:32.323Z,19.20
2018-08-31T18:48:59.897Z,20.07
2018-08-31T18:51:27.463Z,18.53
2018-08-31T18:53:55.385Z,19.13
2018-08-31T18:56:23.041Z,17.93
2018-08-31T18:58:50.911Z,18.17
2018-08-31T19:01:18.775Z,20.00
2018-08-31T19:03:46.766Z,20.20
2018-08-31T19:06:16.556Z,20.40
2018-08-31T19:08:44.609Z,20.20
2018-08-31T19:11:12.523Z,21.50
2018-08-31T19:13:40.936Z,18.13
2018-08-31T19:16:13.016Z,17.97
2018-08-31T19:18:40.684Z,17.97
2018-08-31T19:21:08.529Z,18.63
2018-08-31T19:23:36.930Z,20.20
2018-08-31T19:26:04.853Z,20.50
2018-08-31T19:28:33.375Z,19.57
2018-08-31T19:31:01.204Z,22.47
2018-08-31T19:33:28.848Z,21.97
2018-08-31T19:35:56.501Z,22.07
2018-08-31T19:38:24.890Z,21.33
2018-08-31T19:40:52.618Z,20.67
2018-08-31T19:43:20.636Z,19.30
2018-08-31T19:45:48.969Z,18.80
2018-08-31T19:48:16.760Z,20.50
2018-08-31T19:50:44.404Z,18.40
2018-08-31T19:53:12.774Z,19.17
2018-08-31T19:55:40.451Z,17.63
2018-08-31T19:58:08.243Z,18.93
2018-08-31T20:00:35.984Z,18.20
2018-08-31T20:03:03.760Z,17.73
2018-08-31T20:05:31.384Z,19.73
2018-08-31T20:07:59.313Z,17.17
2018-08-31T20:10:26.919Z,18.03
2018-08-31T20:12:54.704Z,18.40
2018-08-31T20:15:22.448Z,18.47
2018-08-31T20:17:50.355Z,18.10
2018-08-31T20:20:18.548Z,17.20
2018-08-31T20:22:46.450Z,18.00
2018-08-31T20:25:14.206Z,17.93
2018-08-31T20:27:42.659Z,19.70
2018-08-31T20:30:10.403Z,19.20
2018-08-31T20:32:38.123Z,18.83
2018-08-31T20:35:05.964Z,18.47
2018-08-31T20:37:34.277Z,20.50
2018-08-31T20:40:01.963Z,18.00
2018-08-31T20:42:29.839Z,17.33
2018-08-31T20:44:57.506Z,17.77
2018-08-31T20:47:25.325Z,17.90
2018-08-31T20:49:53.057Z,16.53
2018-08-31T20:52:20.739Z,16.57
2018-08-31T20:54:49.252Z,18.57
2018-08-31T20:57:16.840Z,17.40
2018-08-31T20:59:44.827Z,19.23
2018-08-31T21:02:12.500Z,18.90
2018-08-31T21:04:40.408Z,18.40
2018-08-31T21:07:08.815Z,17.97
2018-08-31T21:09:36.592Z,18.10
2018-08-31T21:12:04.431Z,18.40
2018-08-31T21:14:33.472Z,17.67
2018-08-31T21:17:01.526Z,19.10
2018-08-31T21:19:29.207Z,19.40
2018-08-31T21:21:57.979Z,18.67
2018-08-31T21:24:26.831Z,18.87
2018-08-31T21:26:54.544Z,18.87
2018-08-31T21:29:22.716Z,18.10
2018-08-31T21:31:50.380Z,19.30
2018-08-31T21:34:18.543Z,19.10
2018-08-31T21:36:46.369Z,20.27
2018-08-31T21:39:13.955Z,18.93
2018-08-31T21:41:42.388Z,18.73
2018-08-31T21:44:10.678Z,19.30
2018-08-31T21:46:38.457Z,18.63
2018-08-31T21:49:06.288Z,19.97
2018-08-31T21:51:33.961Z,19.80
2018-08-31T21:54:01.627Z,19.77
2018-08-31T21:56:29.273Z,18.20
2018-08-31T21:58:56.991Z,18.73
2018-08-31T22:01:30.414Z,18.63
2018-08-31T22:03:58.463Z,20.00
2018-08-31T22:06:26.048Z,21.67
2018-08-31T22:08:54.233Z,19.33
2018-08-31T22:11:22.007Z,20.37
2018-08-31T22:13:49.611Z,19.90
2018-08-31T22:16:17.263Z,19.60
2018-08-31T22:18:45.487Z,18.37
2018-08-31T22:21:13.040Z,18.13
2018-08-31T22:23:40.765Z,18.73
2018-08-31T22:26:09.239Z,19.87
2018-08-31T22:28:36.784Z,19.33
2018-08-31T22:31:04.525Z,20.03
2018-08-31T22:33:32.272Z,20.37
2018-08-31T22:36:01.065Z,20.10
2018-08-31T22:38:28.680Z,19.57
2018-08-31T22:40:56.435Z,20.33
2018-08-31T22:43:30.019Z,19.70
2018-08-31T22:45:57.671Z,20.23
2018-08-31T22:48:25.456Z,20.47
2018-08-31T22:50:53.111Z,20.20
2018-08-31T22:53:20.756Z,19.67
2018-08-31T22:55:48.639Z,19.80
2018-08-31T22:58:16.382Z,20.10
2018-08-31T23:00:44.072Z,20.20
2018-08-31T23:03:11.728Z,21.90
2018-08-31T23:05:39.472Z,22.37
2018-08-31T23:08:07.160Z,23.57
2018-08-31T23:10:34.716Z,23.10
2018-08-31T23:13:02.756Z,22.93
2018-08-31T23:15:30.451Z,25.13
2018-08-31T23:17:58.731Z,25.17
2018-08-31T23:20:26.577Z,24.43
2018-08-31T23:22:59.890Z,24.67
2018-08-31T23:25:33.049Z,24.00
2018-08-31T23:28:00.624Z,25.70
2018-08-31T23:30:28.369Z,24.63
2018-08-31T23:32:56.088Z,24.00
2018-08-31T23:35:23.815Z,22.70
2018-08-31T23:37:55.993Z,23.43
2018-08-31T23:40:23.639Z,22.93
2018-08-31T23:42:51.292Z,22.00
2018-08-31T23:45:19.244Z,23.20
2018-08-31T23:47:47.701Z,23.20
2018-08-31T23:50:15.529Z,24.20
2018-08-31T23:52:43.423Z,24.30
2018-08-31T23:55:11.017Z,22.40
2018-08-31T23:57:38.823Z,22.53
